createdAt,value
2019-01-12T00:00:39.897Z,100636.63
2019-01-12T00:03:10.440Z,100639.36
2019-01-12T00:05:40.974Z,100638.88
2019-01-12T00:08:11.454Z,100647.09
2019-01-12T00:10:42.089Z,100641.56
2019-01-12T00:13:12.679Z,100634.75
2019-01-12T00:15:44.700Z,100622.19
2019-01-12T00:18:15.105Z,100627.64
2019-01-12T00:20:45.840Z,100628.17
2019-01-12T00:23:16.474Z,100623.26
2019-01-12T00:25:46.727Z,100620.91
2019-01-12T00:28:16.978Z,100632.02
2019-01-12T00:30:47.683Z,100630.55
2019-01-12T00:33:18.152Z,100628.04
2019-01-12T00:35:48.454Z,100638.13
2019-01-12T00:38:19.330Z,100648.83
2019-01-12T00:40:49.827Z,100654.39
2019-01-12T00:43:20.152Z,100659.26
2019-01-12T00:45:50.612Z,100659.80
2019-01-12T00:48:20.886Z,100652.33
2019-01-12T00:50:51.567Z,100652.30
2019-01-12T00:53:22.036Z,100645.09
2019-01-12T00:55:52.503Z,100636.66
2019-01-12T00:58:23.424Z,100636.13
2019-01-12T01:00:53.931Z,100620.86
2019-01-12T01:03:24.376Z,100619.23
2019-01-12T01:05:55.009Z,100608.50
2019-01-12T01:08:25.551Z,100613.31
2019-01-12T01:10:56.002Z,100606.22
2019-01-12T01:13:26.764Z,100582.25
2019-01-12T01:15:57.090Z,100595.52
2019-01-12T01:18:27.470Z,100592.50
2019-01-12T01:20:58.262Z,100584.81
2019-01-12T01:23:28.712Z,100587.69
2019-01-12T01:25:59.430Z,100587.64
2019-01-12T01:28:31.977Z,100575.17
2019-01-12T01:31:02.380Z,100577.70
2019-01-12T01:33:32.772Z,100569.50
2019-01-12T01:36:03.267Z,100574.31
2019-01-12T01:38:33.763Z,100570.92
2019-01-12T01:41:03.989Z,100574.31
2019-01-12T01:43:34.496Z,100574.62
2019-01-12T01:46:05.136Z,100577.98
2019-01-12T01:48:35.550Z,100569.59
2019-01-12T01:51:06.180Z,100560.11
2019-01-12T01:53:36.528Z,100560.98
2019-01-12T01:56:06.933Z,100555.61
2019-01-12T01:58:37.368Z,100537.20
2019-01-12T02:01:07.912Z,100533.23
2019-01-12T02:03:38.358Z,100532.78
2019-01-12T02:06:08.948Z,100526.49
2019-01-12T02:08:39.319Z,100520.91
2019-01-12T02:11:09.631Z,100524.27
2019-01-12T02:13:40.114Z,100526.31
2019-01-12T02:16:10.466Z,100524.14
2019-01-12T02:18:41.886Z,100523.84
2019-01-12T02:21:12.402Z,100509.69
2019-01-12T02:23:42.807Z,100527.74
2019-01-12T02:26:13.031Z,100523.62
2019-01-12T02:28:43.512Z,100526.16
2019-01-12T02:31:13.913Z,100527.89
2019-01-12T02:33:44.597Z,100527.44
2019-01-12T02:36:16.656Z,100524.02
2019-01-12T02:38:47.032Z,100524.87
2019-01-12T02:41:17.409Z,100519.29
2019-01-12T02:43:47.974Z,100523.19
2019-01-12T02:46:18.374Z,100524.50
2019-01-12T02:48:48.807Z,100520.97
2019-01-12T02:51:19.756Z,100517.06
2019-01-12T02:53:50.091Z,100515.81
2019-01-12T02:56:20.390Z,100511.39
2019-01-12T02:58:50.716Z,100504.89
2019-01-12T03:01:21.378Z,100518.59
2019-01-12T03:03:51.926Z,100501.41
2019-01-12T03:06:22.300Z,100506.73
2019-01-12T03:08:52.750Z,100493.88
2019-01-12T03:11:23.361Z,100506.17
2019-01-12T03:13:53.856Z,100489.25
2019-01-12T03:16:24.326Z,100483.30
2019-01-12T03:18:54.763Z,100482.08
2019-01-12T03:21:25.239Z,100476.72
2019-01-12T03:23:55.599Z,100466.59
2019-01-12T03:26:26.355Z,100465.34
2019-01-12T03:28:56.836Z,100466.63
2019-01-12T03:31:27.127Z,100473.82
2019-01-12T03:33:57.701Z,100472.56
2019-01-12T03:36:28.212Z,100473.45
2019-01-12T03:38:58.578Z,100470.86
2019-01-12T03:41:28.923Z,100465.73
2019-01-12T03:43:59.730Z,100467.36
2019-01-12T03:46:30.088Z,100465.61
2019-01-12T03:49:00.519Z,100465.89
2019-01-12T03:51:30.917Z,100484.52
2019-01-12T03:54:01.176Z,100469.05
2019-01-12T03:56:31.510Z,100467.01
2019-01-12T03:59:01.894Z,100461.95
2019-01-12T04:01:32.332Z,100468.30
2019-01-12T04:04:02.708Z,100473.81
2019-01-12T04:06:33.155Z,100464.42
2019-01-12T04:09:05.363Z,100470.06
2019-01-12T04:11:35.808Z,100456.77
2019-01-12T04:14:06.407Z,100463.63
2019-01-12T04:16:36.864Z,100457.98
2019-01-12T04:19:07.186Z,100458.34
2019-01-12T04:21:38.577Z,100456.53
2019-01-12T04:24:08.965Z,100448.98
2019-01-12T04:26:39.370Z,100449.38
2019-01-12T04:29:10.175Z,100441.42
2019-01-12T04:31:40.699Z,100432.68
2019-01-12T04:34:11.146Z,100431.47
2019-01-12T04:36:41.687Z,100428.34
2019-01-12T04:39:12.174Z,100425.16
2019-01-12T04:41:42.590Z,100417.05
2019-01-12T04:44:12.968Z,100421.81
2019-01-12T04:46:43.328Z,100413.89
2019-01-12T04:49:13.653Z,100413.20
2019-01-12T04:51:43.968Z,100413.92
2019-01-12T04:54:14.495Z,100403.22
2019-01-12T04:56:44.802Z,100398.52
2019-01-12T04:59:15.256Z,100404.86
2019-01-12T05:01:45.801Z,100408.38
2019-01-12T05:04:16.224Z,100398.95
2019-01-12T05:06:46.770Z,100392.58
2019-01-12T05:09:17.069Z,100400.75
2019-01-12T05:11:47.529Z,100403.41
2019-01-12T05:14:18.930Z,100402.59
2019-01-12T05:16:49.276Z,100399.60
2019-01-12T05:19:19.843Z,100405.09
2019-01-12T05:21:50.198Z,100403.68
2019-01-12T05:24:20.753Z,100399.70
2019-01-12T05:26:51.488Z,100381.58
2019-01-12T05:29:21.886Z,100399.94
2019-01-12T05:31:52.300Z,100407.19
2019-01-12T05:34:22.689Z,100399.11
2019-01-12T05:36:53.473Z,100403.74
2019-01-12T05:39:23.937Z,100403.34
2019-01-12T05:41:54.497Z,100398.66
2019-01-12T05:44:24.873Z,100423.05
2019-01-12T05:46:55.335Z,100443.08
2019-01-12T05:49:25.761Z,100435.06
2019-01-12T05:51:56.069Z,100412.41
2019-01-12T05:54:26.432Z,100415.33
2019-01-12T05:56:56.788Z,100429.39
2019-01-12T05:59:27.131Z,100419.67
2019-01-12T06:01:57.498Z,100433.23
2019-01-12T06:04:27.924Z,100421.28
2019-01-12T06:06:58.481Z,100429.91
2019-01-12T06:09:28.899Z,100416.68
2019-01-12T06:11:59.241Z,100417.95
2019-01-12T06:14:29.824Z,100424.00
2019-01-12T06:17:00.302Z,100421.80
2019-01-12T06:19:30.622Z,100437.23
2019-01-12T06:22:01.105Z,100418.08
2019-01-12T06:24:32.673Z,100423.91
2019-01-12T06:27:03.138Z,100421.47
2019-01-12T06:29:33.530Z,100422.20
2019-01-12T06:32:05.251Z,100433.33
2019-01-12T06:34:35.804Z,100417.02
2019-01-12T06:37:06.496Z,100443.48
2019-01-12T06:39:36.809Z,100442.78
2019-01-12T06:42:07.175Z,100414.12
2019-01-12T06:44:37.685Z,100422.53
2019-01-12T06:47:08.057Z,100422.10
2019-01-12T06:49:38.906Z,100424.30
2019-01-12T06:52:09.242Z,100426.77
2019-01-12T06:54:40.140Z,100435.20
2019-01-12T06:57:10.947Z,100430.38
2019-01-12T06:59:41.452Z,100448.64
2019-01-12T07:02:11.871Z,100425.06
2019-01-12T07:04:42.246Z,100430.55
2019-01-12T07:07:12.684Z,100426.14
2019-01-12T07:09:43.035Z,100429.06
2019-01-12T07:12:13.522Z,100434.62
2019-01-12T07:14:43.946Z,100430.77
2019-01-12T07:17:14.623Z,100443.62
2019-01-12T07:19:45.020Z,100437.67
2019-01-12T07:22:15.375Z,100436.09
2019-01-12T07:24:45.864Z,100435.34
2019-01-12T07:27:16.370Z,100433.56
2019-01-12T07:29:47.071Z,100435.31
2019-01-12T07:32:19.593Z,100432.29
2019-01-12T07:34:50.105Z,100422.36
2019-01-12T07:37:20.840Z,100405.57
2019-01-12T07:39:52.579Z,100411.58
2019-01-12T07:42:23.109Z,100418.81
2019-01-12T07:44:53.571Z,100413.26
2019-01-12T07:47:23.942Z,100410.73
2019-01-12T07:49:54.406Z,100420.63
2019-01-12T07:52:26.227Z,100398.91
2019-01-12T07:54:56.569Z,100409.09
2019-01-12T07:57:26.953Z,100415.00
2019-01-12T07:59:57.500Z,100402.37
2019-01-12T08:02:27.980Z,100391.22
2019-01-12T08:04:58.546Z,100400.66
2019-01-12T08:07:29.280Z,100391.16
2019-01-12T08:09:59.723Z,100381.68
2019-01-12T08:12:33.538Z,100383.24
2019-01-12T08:15:04.418Z,100384.95
2019-01-12T08:17:34.811Z,100381.06
2019-01-12T08:20:06.316Z,100374.30
2019-01-12T08:22:36.317Z,100378.97
2019-01-12T08:25:07.598Z,100383.88
2019-01-12T08:27:39.058Z,100374.36
2019-01-12T08:30:11.984Z,100375.09
2019-01-12T08:32:42.436Z,100370.23
2019-01-12T08:35:12.770Z,100378.28
2019-01-12T08:37:44.276Z,100364.33
2019-01-12T08:40:14.888Z,100358.98
2019-01-12T08:42:44.958Z,100357.11
2019-01-12T08:45:15.331Z,100366.23
2019-01-12T08:47:45.739Z,100363.63
2019-01-12T08:50:20.696Z,100349.26
2019-01-12T08:52:50.854Z,100352.20
2019-01-12T08:55:21.114Z,100335.04
2019-01-12T08:57:51.991Z,100334.06
2019-01-12T09:00:23.472Z,100329.84
2019-01-12T09:02:53.541Z,100335.84
2019-01-12T09:05:23.908Z,100331.29
2019-01-12T09:07:54.488Z,100321.69
2019-01-12T09:10:24.978Z,100309.84
2019-01-12T09:12:55.285Z,100304.66
2019-01-12T09:15:26.575Z,100290.42
2019-01-12T09:17:56.772Z,100290.23
2019-01-12T09:20:27.789Z,100287.38
2019-01-12T09:22:58.113Z,100279.57
2019-01-12T09:25:28.631Z,100278.14
2019-01-12T09:27:59.362Z,100268.09
2019-01-12T09:30:29.849Z,100284.66
2019-01-12T09:33:00.022Z,100269.84
2019-01-12T09:35:31.406Z,100261.81
2019-01-12T09:38:02.293Z,100249.13
2019-01-12T09:40:32.971Z,100249.98
2019-01-12T09:43:03.524Z,100243.07
2019-01-12T09:45:33.854Z,100245.34
2019-01-12T09:48:04.071Z,100246.73
2019-01-12T09:50:34.535Z,100245.75
2019-01-12T09:53:05.290Z,100246.83
2019-01-12T09:55:35.414Z,100243.87
2019-01-12T09:58:05.738Z,100224.95
2019-01-12T10:00:36.807Z,100226.93
2019-01-12T10:03:08.699Z,100205.86
2019-01-12T10:05:39.056Z,100210.95
2019-01-12T10:08:09.821Z,100201.18
2019-01-12T10:10:39.936Z,100197.05
2019-01-12T10:13:10.534Z,100178.38
2019-01-12T10:15:41.215Z,100194.63
2019-01-12T10:18:11.566Z,100191.45
2019-01-12T10:20:41.845Z,100194.72
2019-01-12T10:23:12.229Z,100195.02
2019-01-12T10:25:42.695Z,100184.79
2019-01-12T10:28:13.122Z,100181.31
2019-01-12T10:30:43.547Z,100170.28
2019-01-12T10:33:14.165Z,100174.14
2019-01-12T10:35:44.661Z,100172.36
2019-01-12T10:38:16.293Z,100168.06
2019-01-12T10:40:46.484Z,100168.56
2019-01-12T10:43:16.518Z,100158.64
2019-01-12T10:45:48.635Z,100163.79
2019-01-12T10:48:18.665Z,100160.28
2019-01-12T10:50:48.630Z,100161.65
2019-01-12T10:53:18.891Z,100165.02
2019-01-12T10:55:49.063Z,100162.56
2019-01-12T10:58:19.036Z,100150.84
2019-01-12T11:00:49.498Z,100151.52
2019-01-12T11:03:19.697Z,100144.70
2019-01-12T11:05:50.389Z,100143.66
2019-01-12T11:08:22.671Z,100135.72
2019-01-12T11:10:52.907Z,100128.31
2019-01-12T11:13:24.380Z,100128.19
2019-01-12T11:15:54.639Z,100122.47
2019-01-12T11:18:24.974Z,100116.97
2019-01-12T11:20:55.594Z,100123.73
2019-01-12T11:23:26.407Z,100119.95
2019-01-12T11:25:56.870Z,100117.38
2019-01-12T11:28:27.190Z,100120.33
2019-01-12T11:30:57.833Z,100114.55
2019-01-12T11:33:28.282Z,100106.23
2019-01-12T11:35:59.919Z,100103.16
2019-01-12T11:38:30.242Z,100113.66
2019-01-12T11:41:00.849Z,100111.97
2019-01-12T11:43:31.219Z,100109.73
2019-01-12T11:46:01.515Z,100105.33
2019-01-12T11:48:32.183Z,100108.39
2019-01-12T11:51:07.084Z,100099.09
2019-01-12T11:53:37.352Z,100105.19
2019-01-12T11:56:07.657Z,100097.52
2019-01-12T11:58:37.900Z,100108.46
2019-01-12T12:01:08.307Z,100117.58
2019-01-12T12:03:38.599Z,100116.64
2019-01-12T12:06:09.117Z,100103.75
2019-01-12T12:08:39.229Z,100113.14
2019-01-12T12:11:09.280Z,100115.86
2019-01-12T12:13:40.594Z,100118.44
2019-01-12T12:16:10.695Z,100114.56
2019-01-12T12:18:40.697Z,100122.65
2019-01-12T12:21:11.105Z,100118.34
2019-01-12T12:23:41.890Z,100109.34
2019-01-12T12:26:11.975Z,100108.19
2019-01-12T12:28:42.259Z,100123.28
2019-01-12T12:31:12.417Z,100135.17
2019-01-12T12:33:42.399Z,100121.52
2019-01-12T12:36:12.910Z,100119.34
2019-01-12T12:38:44.625Z,100131.45
2019-01-12T12:41:14.836Z,100134.41
2019-01-12T12:43:45.314Z,100139.34
2019-01-12T12:46:15.330Z,100138.77
2019-01-12T12:48:45.379Z,100138.95
2019-01-12T12:51:16.226Z,100147.76
2019-01-12T12:53:47.615Z,100148.90
2019-01-12T12:56:20.018Z,100147.98
2019-01-12T12:58:50.619Z,100146.83
2019-01-12T13:01:21.071Z,100150.56
2019-01-12T13:03:51.117Z,100149.53
2019-01-12T13:06:21.308Z,100148.24
2019-01-12T13:08:51.486Z,100145.03
2019-01-12T13:11:21.614Z,100151.00
2019-01-12T13:13:51.812Z,100155.85
2019-01-12T13:16:24.828Z,100159.84
2019-01-12T13:18:54.841Z,100152.48
2019-01-12T13:21:25.558Z,100159.67
2019-01-12T13:23:55.588Z,100154.23
2019-01-12T13:26:25.671Z,100161.32
2019-01-12T13:28:55.796Z,100172.99
2019-01-12T13:31:26.727Z,100171.39
2019-01-12T13:33:57.707Z,100171.70
2019-01-12T13:36:28.493Z,100172.74
2019-01-12T13:38:58.540Z,100171.86
2019-01-12T13:41:28.593Z,100158.44
2019-01-12T13:43:58.806Z,100164.51
2019-01-12T13:46:29.077Z,100161.08
2019-01-12T13:48:59.318Z,100155.61
2019-01-12T13:51:29.778Z,100150.89
2019-01-12T13:53:59.932Z,100153.59
2019-01-12T13:56:30.470Z,100152.02
2019-01-12T13:59:01.266Z,100152.39
2019-01-12T14:01:31.800Z,100141.36
2019-01-12T14:04:02.284Z,100141.48
2019-01-12T14:06:32.632Z,100126.54
2019-01-12T14:09:04.071Z,100130.53
2019-01-12T14:11:34.095Z,100129.31
2019-01-12T14:14:04.202Z,100126.94
2019-01-12T14:16:34.397Z,100138.45
2019-01-12T14:19:04.396Z,100133.50
2019-01-12T14:21:35.062Z,100137.24
2019-01-12T14:24:05.187Z,100142.85
2019-01-12T14:26:35.379Z,100133.60
2019-01-12T14:29:05.864Z,100137.86
2019-01-12T14:31:36.104Z,100127.19
2019-01-12T14:34:06.199Z,100137.59
2019-01-12T14:36:36.640Z,100129.11
2019-01-12T14:39:11.068Z,100125.21
2019-01-12T14:41:41.348Z,100136.15
2019-01-12T14:44:11.428Z,100134.12
2019-01-12T14:46:41.786Z,100127.47
2019-01-12T14:49:12.103Z,100131.38
2019-01-12T14:51:42.261Z,100121.81
2019-01-12T14:54:12.361Z,100115.59
2019-01-12T14:56:42.839Z,100110.25
2019-01-12T14:59:13.499Z,100113.28
2019-01-12T15:01:43.679Z,100102.11
2019-01-12T15:04:14.302Z,100108.16
2019-01-12T15:06:44.295Z,100103.72
2019-01-12T15:09:14.658Z,100101.05
2019-01-12T15:11:44.959Z,100096.01
2019-01-12T15:14:14.979Z,100089.59
2019-01-12T15:16:46.712Z,100094.42
2019-01-12T15:19:17.431Z,100093.83
2019-01-12T15:21:47.969Z,100095.17
2019-01-12T15:24:19.693Z,100095.27
2019-01-12T15:26:50.662Z,100100.45
2019-01-12T15:29:21.592Z,100094.23
2019-01-12T15:31:51.977Z,100097.07
2019-01-12T15:34:23.188Z,100104.94
2019-01-12T15:36:55.333Z,100104.64
2019-01-12T15:39:25.841Z,100101.66
2019-01-12T15:41:56.503Z,100096.81
2019-01-12T15:44:26.882Z,100107.66
2019-01-12T15:46:58.058Z,100099.02
2019-01-12T15:49:28.991Z,100101.95
2019-01-12T15:51:59.182Z,100104.80
2019-01-12T15:54:29.639Z,100103.94
2019-01-12T15:57:00.090Z,100111.22
2019-01-12T15:59:31.922Z,100106.98
2019-01-12T16:02:03.819Z,100122.39
2019-01-12T16:04:34.607Z,100108.37
2019-01-12T16:07:05.042Z,100112.02
2019-01-12T16:09:35.867Z,100110.47
2019-01-12T16:12:06.288Z,100121.30
2019-01-12T16:14:36.838Z,100116.55
2019-01-12T16:17:07.321Z,100130.09
2019-01-12T16:19:37.806Z,100131.52
2019-01-12T16:22:08.404Z,100134.12
2019-01-12T16:24:41.153Z,100139.02
2019-01-12T16:27:11.678Z,100138.22
2019-01-12T16:29:42.210Z,100152.57
2019-01-12T16:32:12.888Z,100150.14
2019-01-12T16:34:43.481Z,100150.16
2019-01-12T16:37:15.676Z,100163.49
2019-01-12T16:39:46.380Z,100152.90
2019-01-12T16:42:17.110Z,100151.23
2019-01-12T16:44:48.798Z,100164.72
2019-01-12T16:47:19.384Z,100159.13
2019-01-12T16:49:49.929Z,100162.20
2019-01-12T16:52:20.495Z,100149.47
2019-01-12T16:54:51.213Z,100163.28
2019-01-12T16:57:21.888Z,100163.03
2019-01-12T16:59:52.354Z,100161.27
2019-01-12T17:02:23.309Z,100160.80
2019-01-12T17:04:53.890Z,100169.73
2019-01-12T17:07:24.607Z,100159.61
2019-01-12T17:09:55.440Z,100157.42
2019-01-12T17:12:26.615Z,100166.83
2019-01-12T17:14:58.358Z,100173.63
2019-01-12T17:17:28.803Z,100172.73
2019-01-12T17:19:59.278Z,100175.86
2019-01-12T17:22:29.847Z,100187.74
2019-01-12T17:25:00.673Z,100194.10
2019-01-12T17:27:31.218Z,100191.67
2019-01-12T17:30:02.214Z,100193.81
2019-01-12T17:32:39.112Z,100200.56
2019-01-12T17:35:11.201Z,100195.98
2019-01-12T17:37:42.017Z,100200.27
2019-01-12T17:40:13.613Z,100194.74
2019-01-12T17:42:44.084Z,100190.44
2019-01-12T17:45:16.823Z,100196.76
2019-01-12T17:47:47.498Z,100194.70
2019-01-12T17:50:20.744Z,100193.42
2019-01-12T17:52:51.989Z,100199.88
2019-01-12T17:55:24.697Z,100199.15
2019-01-12T17:57:56.018Z,100211.13
2019-01-12T18:00:35.096Z,100213.21
2019-01-12T18:03:07.723Z,100217.78
2019-01-12T18:05:38.340Z,100220.26
2019-01-12T18:08:09.016Z,100213.63
2019-01-12T18:10:39.747Z,100222.52
2019-01-12T18:13:10.383Z,100231.06
2019-01-12T18:15:41.178Z,100233.30
2019-01-12T18:18:12.009Z,100234.45
2019-01-12T18:20:42.859Z,100240.00
2019-01-12T18:23:14.032Z,100241.80
2019-01-12T18:25:45.755Z,100240.94
2019-01-12T18:28:16.670Z,100241.33
2019-01-12T18:30:47.363Z,100232.40
2019-01-12T18:33:18.113Z,100233.33
2019-01-12T18:35:48.782Z,100225.84
2019-01-12T18:38:19.431Z,100230.16
2019-01-12T18:40:50.515Z,100229.64
2019-01-12T18:43:21.138Z,100231.44
2019-01-12T18:45:51.761Z,100230.55
2019-01-12T18:48:22.903Z,100228.80
2019-01-12T18:50:53.693Z,100232.30
2019-01-12T18:53:24.208Z,100233.19
2019-01-12T18:55:54.964Z,100237.03
2019-01-12T18:58:25.948Z,100244.33
2019-01-12T19:00:56.604Z,100245.34
2019-01-12T19:03:27.567Z,100244.77
2019-01-12T19:05:58.065Z,100241.81
2019-01-12T19:08:29.934Z,100240.14
2019-01-12T19:11:01.745Z,100241.89
2019-01-12T19:13:32.774Z,100243.72
2019-01-12T19:16:03.707Z,100247.98
2019-01-12T19:18:35.972Z,100242.36
2019-01-12T19:21:06.521Z,100241.11
2019-01-12T19:23:39.140Z,100243.72
2019-01-12T19:26:10.826Z,100245.38
2019-01-12T19:28:41.552Z,100244.77
2019-01-12T19:31:12.131Z,100254.52
2019-01-12T19:33:43.765Z,100264.13
2019-01-12T19:36:14.446Z,100266.06
2019-01-12T19:38:45.213Z,100266.98
2019-01-12T19:41:15.788Z,100264.72
2019-01-12T19:43:47.360Z,100269.77
2019-01-12T19:46:18.126Z,100272.33
2019-01-12T19:48:50.496Z,100267.56
2019-01-12T19:51:20.938Z,100270.34
2019-01-12T19:53:51.519Z,100272.82
2019-01-12T19:56:22.128Z,100260.30
2019-01-12T19:58:52.705Z,100263.78
2019-01-12T20:01:23.889Z,100262.04
2019-01-12T20:03:54.555Z,100262.89
2019-01-12T20:06:25.211Z,100260.75
2019-01-12T20:08:55.916Z,100257.84
2019-01-12T20:11:26.501Z,100265.17
2019-01-12T20:13:57.039Z,100260.23
2019-01-12T20:16:27.825Z,100265.86
2019-01-12T20:18:58.856Z,100261.59
2019-01-12T20:21:30.046Z,100254.80
2019-01-12T20:24:00.751Z,100256.92
2019-01-12T20:26:31.486Z,100266.81
2019-01-12T20:29:02.231Z,100253.91
2019-01-12T20:31:47.757Z,100245.47
2019-01-12T20:34:44.507Z,100240.31
2019-01-12T20:38:07.714Z,100230.92
2019-01-12T20:41:15.860Z,100222.74
2019-01-12T20:43:58.790Z,100228.83
2019-01-12T20:46:59.057Z,100232.78
2019-01-12T20:49:38.738Z,100232.98
2019-01-12T20:53:03.821Z,100226.43
2019-01-12T20:55:57.257Z,100220.56
2019-01-12T20:59:01.357Z,100210.97
2019-01-12T21:01:56.939Z,100205.50
2019-01-12T21:05:03.441Z,100191.56
2019-01-12T21:07:53.041Z,100197.58
2019-01-12T21:10:34.561Z,100197.19
2019-01-12T21:13:32.509Z,100180.54
2019-01-12T21:16:13.059Z,100181.08
2019-01-12T21:18:43.897Z,100172.08
2019-01-12T21:21:14.182Z,100180.15
2019-01-12T21:23:44.914Z,100172.16
2019-01-12T21:26:15.704Z,100175.96
2019-01-12T21:28:46.298Z,100179.45
2019-01-12T21:31:17.042Z,100168.81
2019-01-12T21:33:48.763Z,100176.22
2019-01-12T21:36:19.430Z,100175.68
2019-01-12T21:38:49.963Z,100179.52
2019-01-12T21:41:20.849Z,100177.10
2019-01-12T21:43:51.597Z,100169.49
2019-01-12T21:46:22.276Z,100169.11
2019-01-12T21:48:53.612Z,100169.56
2019-01-12T21:51:25.947Z,100161.92
2019-01-12T21:53:57.937Z,100163.95
2019-01-12T21:56:28.597Z,100161.75
2019-01-12T21:58:59.188Z,100164.16
2019-01-12T22:01:36.106Z,100153.84
2019-01-12T22:04:02.608Z,100161.80
2019-01-12T22:06:34.716Z,100166.45
2019-01-12T22:09:08.308Z,100154.05
2019-01-12T22:11:40.249Z,100159.20
2019-01-12T22:14:11.172Z,100151.17
2019-01-12T22:16:41.881Z,100159.00
2019-01-12T22:19:16.699Z,100160.78
2019-01-12T22:21:51.178Z,100139.98
2019-01-12T22:24:26.238Z,100145.22
2019-01-12T22:27:00.859Z,100149.45
2019-01-12T22:29:35.954Z,100143.30
2019-01-12T22:32:06.526Z,100138.58
2019-01-12T22:34:37.479Z,100136.02
2019-01-12T22:37:08.327Z,100141.20
2019-01-12T22:39:38.976Z,100148.45
2019-01-12T22:42:09.701Z,100142.16
2019-01-12T22:44:40.713Z,100136.23
2019-01-12T22:47:12.583Z,100143.41
2019-01-12T22:49:44.197Z,100146.11
2019-01-12T22:52:14.767Z,100147.78
2019-01-12T22:54:45.381Z,100138.50
2019-01-12T22:57:16.110Z,100139.36
2019-01-12T22:59:46.683Z,100145.22
2019-01-12T23:02:17.660Z,100135.87
2019-01-12T23:04:49.725Z,100132.03
2019-01-12T23:07:20.355Z,100129.20
2019-01-12T23:09:51.112Z,100126.50
2019-01-12T23:12:21.616Z,100133.74
2019-01-12T23:14:52.231Z,100135.48
2019-01-12T23:17:23.134Z,100132.64
2019-01-12T23:19:54.332Z,100126.56
2019-01-12T23:22:25.080Z,100127.59
2019-01-12T23:24:55.876Z,100134.34
2019-01-12T23:27:26.629Z,100132.17
2019-01-12T23:30:04.116Z,100127.92
2019-01-12T23:32:30.698Z,100133.00
2019-01-12T23:35:02.609Z,100134.80
2019-01-12T23:37:33.255Z,100133.49
2019-01-12T23:40:03.908Z,100143.96
2019-01-12T23:42:35.709Z,100142.66
2019-01-12T23:45:08.022Z,100145.60
2019-01-12T23:47:38.758Z,100144.78
2019-01-12T23:50:10.815Z,100143.80
2019-01-12T23:52:41.505Z,100147.77
2019-01-12T23:55:12.301Z,100149.94
2019-01-12T23:57:42.996Z,100144.84
